Ruby_indah — 9VND — position and weather

sailwx.info

Track history (hours):
 
Tides and Currents Weather Stations Pressure Air Temp Water Temp Dewpoint Dewpoint Depression Visibility Wind Speed Wind Dir Waves Ship Positions

Ruby_indah

Last reported at 2014-Oct-12 16:32 UTC. Time now 2014-Oct-31 17:15 UTC.
Position N 22°07' E 119°59'.
Warning: this ship's position is 19 days out of date.

Length 229 m; draft 6.6 m.

Type: Cargo ship. MMSI: 564748000.

Date/timePositionNaut miles runAvg speedWind from/ knotsBaromVisibWave heightAir tempDewpointWater temp
2014-Oct-12 16:32N 22°07' E 119°59'1513.8
2014-Oct-12 15:27N 22°22' E 119°58'1213.5
2014-Oct-12 14:33N 22°34' E 119°57'1313.5
2014-Oct-12 13:33N 22°47' E 119°56'51413.0
2014-Oct-10 22:09N 30°48' E 123°20'8611.2
2014-Oct-10 14:27N 32°14' E 123°19'22212.4
2014-Oct-09 20:34N 35°56' E 123°20'1412.8
2014-Oct-09 19:26N 36°10' E 123°20'1112.7
2014-Oct-09 18:34N 36°21' E 123°20'1312.9
2014-Oct-09 17:33N 36°34' E 123°17'1414.0
2014-Oct-09 16:33N 36°48' E 123°13'1414.4
2014-Oct-09 15:33N 37°02' E 123°11'1414.1
2014-Oct-09 14:33N 37°16' E 123°07'1313.5
2014-Oct-09 13:33N 37°29' E 123°03'1111.3
2014-Oct-09 12:33N 37°39' E 122°58'1211.6
2014-Oct-09 11:33N 37°44' E 122°44'1312.7
2014-Oct-09 10:34N 37°43' E 122°28'1313.3
2014-Oct-09 09:34N 37°47' E 122°12'1414.0
2014-Oct-09 08:33N 37°49' E 121°55'1414.4
2014-Oct-09 07:34N 37°52' E 121°37'1414.4
2014-Oct-09 06:33N 37°55' E 121°19'1513.9
2014-Oct-09 05:29N 37°57' E 121°01'  
2014-Oct-04 18:16N 37°56' E 121°16'811.8
2014-Oct-04 17:33N 37°55' E 121°26'1212.2
2014-Oct-04 16:33N 37°53' E 121°42'1312.6
2014-Oct-04 15:33N 37°50' E 121°57'1812.3
2014-Oct-04 14:08N 37°47' E 122°19'812.2
2014-Oct-04 13:27N 37°47' E 122°30'  
Track history (hours):
 
Tides and Currents Weather Stations Pressure Air Temp Water Temp Dewpoint Dewpoint Depression Visibility Wind Speed Wind Dir Waves Ship Positions

Ruby_indah

Last reported at 2014-Oct-12 16:32 UTC. Time now 2014-Oct-31 17:15 UTC.
Position N 22°07' E 119°59'.
Warning: this ship's position is 19 days out of date.

Length 229 m; draft 6.6 m.

Type: Cargo ship. MMSI: 564748000.

Date/timePositionNaut miles runAvg speedWind from/ knotsBaromVisibWave heightAir tempDewpointWater temp
2014-Oct-12 16:32N 22°07' E 119°59'1513.8
2014-Oct-12 15:27N 22°22' E 119°58'1213.5
2014-Oct-12 14:33N 22°34' E 119°57'1313.5
2014-Oct-12 13:33N 22°47' E 119°56'51413.0
2014-Oct-10 22:09N 30°48' E 123°20'8611.2
2014-Oct-10 14:27N 32°14' E 123°19'22212.4
2014-Oct-09 20:34N 35°56' E 123°20'1412.8
2014-Oct-09 19:26N 36°10' E 123°20'1112.7
2014-Oct-09 18:34N 36°21' E 123°20'1312.9
2014-Oct-09 17:33N 36°34' E 123°17'1414.0
2014-Oct-09 16:33N 36°48' E 123°13'1414.4
2014-Oct-09 15:33N 37°02' E 123°11'1414.1
2014-Oct-09 14:33N 37°16' E 123°07'1313.5
2014-Oct-09 13:33N 37°29' E 123°03'1111.3
2014-Oct-09 12:33N 37°39' E 122°58'1211.6
2014-Oct-09 11:33N 37°44' E 122°44'1312.7
2014-Oct-09 10:34N 37°43' E 122°28'1313.3
2014-Oct-09 09:34N 37°47' E 122°12'1414.0
2014-Oct-09 08:33N 37°49' E 121°55'1414.4
2014-Oct-09 07:34N 37°52' E 121°37'1414.4
2014-Oct-09 06:33N 37°55' E 121°19'1513.9
2014-Oct-09 05:29N 37°57' E 121°01'  
2014-Oct-04 18:16N 37°56' E 121°16'811.8
2014-Oct-04 17:33N 37°55' E 121°26'1212.2
2014-Oct-04 16:33N 37°53' E 121°42'1312.6
2014-Oct-04 15:33N 37°50' E 121°57'1812.3
2014-Oct-04 14:08N 37°47' E 122°19'812.2
2014-Oct-04 13:27N 37°47' E 122°30'  

Dump ship's entire track history